Time;durP1;ratioP1;P1;durP2;ratioP2;P2;SDS_P1;SDS_P2;PMS_P1;PMS_P2;Temp;Humidity;BMP_temperature;BMP_pressure;BME280_temperature;BME280_humidity;BME280_pressure;Samples;Min_cycle;Max_cycle;Signal;HPM_P1;HPM_P2
2024/01/21 00:00:11;;;;;;;2.92;2.72;;;;;;;-4.04;80.37;101128.19;5093835;28;20486;-74
2024/01/21 00:02:42;;;;;;;0.80;0.80;;;;;;;-4.04;80.48;101130.69;5093703;28;20058;-74
2024/01/21 00:05:11;;;;;;;0.90;0.90;;;;;;;-4.05;80.39;101122.31;5092451;28;20466;-74
2024/01/21 00:07:40;;;;;;;1.17;1.08;;;;;;;-4.09;79.79;101113.75;5093952;28;20036;-74
2024/01/21 00:10:11;;;;;;;2.77;2.57;;;;;;;-4.10;79.96;101123.56;5093658;28;20044;-74
2024/01/21 00:12:39;;;;;;;2.78;2.42;;;;;;;-4.23;80.32;101106.78;5093867;28;20269;-74
2024/01/21 00:15:09;;;;;;;3.08;2.88;;;;;;;-4.17;79.98;101122.22;5093307;28;20044;-74
2024/01/21 00:17:38;;;;;;;6.28;5.68;;;;;;;-4.12;80.00;101118.47;5093931;28;20115;-74
2024/01/21 00:20:08;;;;;;;0.77;0.77;;;;;;;-4.14;80.30;101127.47;5093717;28;20504;-74
2024/01/21 00:22:38;;;;;;;1.65;1.58;;;;;;;-4.20;80.13;101131.94;5093856;28;20078;-74
2024/01/21 00:25:10;;;;;;;1.67;1.23;;;;;;;-4.23;80.39;101136.69;5093877;28;20082;-74
2024/01/21 00:27:39;;;;;;;0.70;0.70;;;;;;;-4.26;79.88;101136.44;5093832;28;20055;-74
2024/01/21 00:30:08;;;;;;;1.42;1.33;;;;;;;-4.33;80.13;101139.19;5093669;28;20036;-74
2024/01/21 00:32:37;;;;;;;2.92;2.65;;;;;;;-4.38;80.38;101135.44;5093476;28;20593;-74
2024/01/21 00:35:07;;;;;;;5.22;4.38;;;;;;;-4.43;80.34;101146.66;5093717;28;20058;-74
2024/01/21 00:37:36;;;;;;;0.60;0.60;;;;;;;-4.44;80.32;101147.38;5092315;28;20383;-74
2024/01/21 00:40:08;;;;;;;0.40;0.40;;;;;;;-4.36;80.52;101143.91;5093648;28;20495;-74
2024/01/21 00:42:39;;;;;;;2.30;1.13;;;;;;;-4.28;80.20;101147.91;5092288;28;20384;-74
2024/01/21 00:45:09;;;;;;;0.52;0.52;;;;;;;-4.29;79.90;101146.16;5093623;28;20040;-74
2024/01/21 00:47:38;;;;;;;2.13;2.03;;;;;;;-4.34;80.34;101154.00;5091997;28;20038;-74
2024/01/21 00:50:07;;;;;;;2.83;1.63;;;;;;;-4.36;80.51;101158.84;5093284;28;20036;-74
2024/01/21 00:52:36;;;;;;;1.40;1.30;;;;;;;-4.36;80.62;101156.38;5093483;28;20628;-74
2024/01/21 00:55:06;;;;;;;1.90;1.80;;;;;;;-4.50;80.17;101156.00;5093248;28;20043;-74
2024/01/21 00:57:35;;;;;;;2.13;1.98;;;;;;;-4.50;80.34;101151.88;5093094;28;20051;-74
2024/01/21 01:00:07;;;;;;;9.70;3.75;;;;;;;-4.48;80.27;101152.88;5093502;28;20060;-74
2024/01/21 01:02:36;;;;;;;2.65;2.22;;;;;;;-4.45;80.01;101148.16;5093538;28;20093;-74
2024/01/21 01:05:05;;;;;;;1.50;1.40;;;;;;;-4.41;79.90;101165.09;5093407;28;20036;-76
2024/01/21 01:07:34;;;;;;;;;;;;;;;-4.41;80.87;101159.22;5092646;28;20093;-76
2024/01/21 01:10:04;;;;;;;3.83;3.45;;;;;;;-4.44;80.57;101156.50;5093178;28;19920;-76
2024/01/21 01:12:33;;;;;;;0.70;0.70;;;;;;;-4.43;80.60;101161.59;5093370;28;20040;-76
2024/01/21 01:15:02;;;;;;;6.72;6.10;;;;;;;-4.32;81.08;101160.84;5092918;28;20044;-76
2024/01/21 01:17:32;;;;;;;1.45;1.35;;;;;;;-4.30;80.71;101161.88;5093410;28;20036;-74
2024/01/21 01:20:02;;;;;;;5.72;5.20;;;;;;;-4.38;80.90;101152.88;5093580;28;20068;-74
2024/01/21 01:22:31;;;;;;;4.10;2.83;;;;;;;-4.37;80.52;101163.72;5092207;28;20122;-74
2024/01/21 01:25:01;;;;;;;1.02;1.00;;;;;;;-4.41;80.98;101151.75;5093500;28;20036;-74
2024/01/21 01:27:30;;;;;;;3.45;3.15;;;;;;;-4.36;80.93;101163.84;5097145;28;20028;-74
2024/01/21 01:29:59;;;;;;;2.25;2.15;;;;;;;-4.43;80.80;101166.59;5096848;28;20036;-74
2024/01/21 01:32:28;;;;;;;0.93;0.93;;;;;;;-4.55;80.54;101169.69;5096516;28;20036;-74
2024/01/21 01:34:58;;;;;;;4.07;3.78;;;;;;;-4.62;80.61;101165.81;5096675;28;20044;-74
2024/01/21 01:37:27;;;;;;;5.38;3.72;;;;;;;-4.62;80.44;101168.31;5096733;28;20131;-74
2024/01/21 01:39:56;;;;;;;4.15;3.80;;;;;;;-4.60;80.67;101170.91;5096434;28;20048;-74
2024/01/21 01:42:25;;;;;;;4.47;4.18;;;;;;;-4.57;80.45;101172.06;5096579;28;20138;-74
2024/01/21 01:44:54;;;;;;;17.23;2.80;;;;;;;-4.60;80.34;101181.75;5096573;28;20040;-74
2024/01/21 01:47:24;;;;;;;7.10;5.13;;;;;;;-4.58;80.58;101177.78;5096742;28;20039;-74
2024/01/21 01:49:56;;;;;;;0.57;0.57;;;;;;;-4.51;80.65;101182.50;5096292;28;20040;-74
2024/01/21 01:52:26;;;;;;;5.35;3.38;;;;;;;-4.52;81.02;101188.25;5095266;28;20043;-75
2024/01/21 01:54:55;;;;;;;2.47;2.28;;;;;;;-4.50;80.72;101183.38;5096854;28;20397;-74
2024/01/21 01:57:25;;;;;;;2.20;1.52;;;;;;;-4.53;80.41;101184.00;5095888;28;20074;-76
2024/01/21 01:59:54;;;;;;;1.50;1.40;;;;;;;-4.50;80.59;101178.41;5095984;28;20494;-76
2024/01/21 02:02:24;;;;;;;8.43;2.58;;;;;;;-4.46;80.82;101181.28;5096002;28;20506;-76
2024/01/21 02:04:54;;;;;;;4.97;2.88;;;;;;;-4.49;80.87;101175.19;5095941;28;20032;-76
2024/01/21 02:07:22;;;;;;;;;;;;;;;-4.55;80.14;101175.53;5096679;28;20139;-76
2024/01/21 02:09:53;;;;;;;2.35;2.15;;;;;;;-4.56;80.43;101175.44;5096812;28;20354;-77
2024/01/21 02:12:22;;;;;;;5.60;5.07;;;;;;;-4.73;79.93;101179.00;5094833;28;20043;-76
2024/01/21 02:14:51;;;;;;;2.17;2.08;;;;;;;-4.90;80.26;101154.31;5094547;28;20097;-77
2024/01/21 02:17:20;;;;;;;5.47;3.80;;;;;;;-4.77;80.37;101172.00;5077776;28;20097;-77
2024/01/21 02:19:49;;;;;;;1.05;1.00;;;;;;;-4.79;80.22;101178.47;5095855;28;20040;-77
2024/01/21 02:22:19;;;;;;;3.25;3.05;;;;;;;-4.85;79.78;101182.97;5096066;28;20103;-76
2024/01/21 02:24:50;;;;;;;1.92;1.38;;;;;;;-4.83;79.83;101183.97;5094403;28;20090;-77
2024/01/21 02:27:19;;;;;;;6.78;5.85;;;;;;;-4.77;80.37;101182.84;5094639;28;20044;-75
2024/01/21 02:29:48;;;;;;;0.70;0.70;;;;;;;-4.71;80.14;101192.47;5094437;28;20048;-75
2024/01/21 02:32:17;;;;;;;;;;;;;;;-4.61;80.43;101190.00;5095926;28;20040;-74
2024/01/21 02:34:46;;;;;;;6.93;5.13;;;;;;;-4.63;80.31;101176.50;5095701;28;19924;-74
2024/01/21 02:37:15;;;;;;;1.80;1.70;;;;;;;-4.57;80.45;101187.00;5095646;28;20063;-74
2024/01/21 02:39:44;;;;;;;0.93;0.93;;;;;;;-4.97;80.37;101108.16;5095132;28;20095;-74
2024/01/21 02:42:15;;;;;;;2.05;1.85;;;;;;;-4.59;80.53;101188.50;5095789;28;20036;-74
2024/01/21 02:44:44;;;;;;;1.80;1.70;;;;;;;-4.67;80.37;101194.44;5095518;28;20040;-74
2024/01/21 02:47:13;;;;;;;5.45;3.13;;;;;;;-4.87;80.23;101191.94;5095495;28;20040;-74
2024/01/21 02:49:42;;;;;;;1.67;1.45;;;;;;;-4.96;80.04;101198.59;5095547;28;20043;-74
2024/01/21 02:52:11;;;;;;;1.25;1.15;;;;;;;-4.93;80.68;101183.94;5094742;28;20528;-74
2024/01/21 02:54:40;;;;;;;3.05;2.80;;;;;;;-4.83;81.03;101192.31;5095172;28;20032;-74
2024/01/21 02:57:08;;;;;;;1.60;1.50;;;;;;;-4.84;80.66;101182.22;5094689;28;20089;-74
2024/01/21 02:59:39;;;;;;;1.65;1.55;;;;;;;-4.76;81.22;101178.75;5094694;28;20040;-74
2024/01/21 03:02:08;;;;;;;2.75;2.58;;;;;;;-4.76;80.74;101171.28;5094679;28;20477;-74
2024/01/21 03:04:37;;;;;;;3.80;3.35;;;;;;;-4.77;80.81;101177.00;5076894;28;20121;-74
2024/01/21 03:07:06;;;;;;;15.57;3.17;;;;;;;-4.71;80.81;101175.03;5094769;28;20064;-75
2024/01/21 03:09:35;;;;;;;6.30;2.95;;;;;;;-4.75;80.65;101175.50;5094815;28;20063;-74
2024/01/21 03:12:04;;;;;;;1.63;1.52;;;;;;;-4.76;80.64;101166.31;5094931;28;20539;-75
2024/01/21 03:14:33;;;;;;;3.00;2.80;;;;;;;-4.75;80.71;101160.56;5094493;28;20036;-74
2024/01/21 03:17:04;;;;;;;4.22;3.83;;;;;;;-4.83;80.59;101166.53;5094838;28;20449;-74
2024/01/21 03:19:33;;;;;;;5.30;3.25;;;;;;;-4.82;80.86;101169.16;5094709;28;20072;-74
2024/01/21 03:22:02;;;;;;;3.28;2.38;;;;;;;-4.83;80.38;101171.53;5094428;28;20382;-75
2024/01/21 03:24:32;;;;;;;2.03;1.85;;;;;;;-4.88;80.89;101167.78;5094643;28;20036;-75
2024/01/21 03:27:01;;;;;;;4.45;4.05;;;;;;;-4.95;80.58;101165.50;5094609;28;20134;-75
2024/01/21 03:29:30;;;;;;;2.95;2.75;;;;;;;-4.88;80.86;101177.72;5094483;28;20043;-74
2024/01/21 03:31:58;;;;;;;7.85;5.80;;;;;;;-4.83;80.48;101191.44;5094118;28;20032;-74
2024/01/21 03:34:29;;;;;;;0.60;0.60;;;;;;;-4.86;80.33;101192.03;5094146;28;20044;-74
2024/01/21 03:36:58;;;;;;;1.45;1.35;;;;;;;-4.90;80.24;101189.19;5094444;28;20047;-74
2024/01/21 03:39:27;;;;;;;3.38;3.13;;;;;;;-5.00;80.03;101161.75;5094232;28;20193;-74
2024/01/21 03:41:56;;;;;;;4.40;4.03;;;;;;;-4.91;80.49;101182.44;5094326;28;20044;-74
2024/01/21 03:44:25;;;;;;;3.13;2.35;;;;;;;-4.90;80.20;101180.09;5094350;28;20101;-74
2024/01/21 03:46:54;;;;;;;2.25;2.13;;;;;;;-4.85;80.53;101185.47;5094472;28;20046;-74
2024/01/21 03:49:22;;;;;;;1.92;1.83;;;;;;;-4.87;80.54;101189.44;5093778;28;20032;-74
2024/01/21 03:51:54;;;;;;;2.67;2.50;;;;;;;-4.90;80.05;101189.19;5094127;28;20046;-74
2024/01/21 03:54:23;;;;;;;3.28;3.08;;;;;;;-4.85;80.08;101182.97;5076252;28;20524;-74
2024/01/21 03:56:52;;;;;;;13.38;12.10;;;;;;;-4.81;80.24;101179.97;5093496;28;20135;-74
2024/01/21 03:59:21;;;;;;;2.70;1.88;;;;;;;-4.80;79.87;101186.72;5094037;28;20040;-74
2024/01/21 04:01:50;;;;;;;1.58;1.48;;;;;;;-5.01;79.62;101170.84;5094043;28;20040;-74
2024/01/21 04:04:19;;;;;;;2.88;2.67;;;;;;;-5.03;79.65;101197.22;5094067;28;20036;-74
2024/01/21 04:06:48;;;;;;;3.70;3.40;;;;;;;-5.05;80.10;101197.81;5093679;28;20503;-74
2024/01/21 04:09:23;;;;;;;2.53;2.33;;;;;;;-5.43;80.20;101129.91;5094028;28;20514;-74
2024/01/21 04:11:52;;;;;;;2.58;2.30;;;;;;;-4.97;80.09;101204.34;5093498;28;20046;-74
2024/01/21 04:14:23;;;;;;;3.00;2.80;;;;;;;-4.89;80.14;101199.25;5093930;28;20071;-74
2024/01/21 04:16:52;;;;;;;6.40;5.85;;;;;;;-4.95;80.48;101211.19;5093862;28;20393;-74
2024/01/21 04:19:21;;;;;;;2.08;1.98;;;;;;;-5.02;80.63;101208.94;5093505;28;20136;-74
2024/01/21 04:21:50;;;;;;;4.68;4.35;;;;;;;-5.11;80.04;101192.34;5093827;28;20044;-74
2024/01/21 04:24:21;;;;;;;2.92;2.72;;;;;;;-5.06;80.62;101201.09;5093845;28;20032;-74
2024/01/21 04:26:50;;;;;;;1.30;1.20;;;;;;;-5.01;80.36;101202.31;5092411;28;20448;-74
2024/01/21 04:29:19;;;;;;;1.00;1.00;;;;;;;-5.00;80.60;101207.44;5092498;28;20520;-74
2024/01/21 04:31:48;;;;;;;2.92;2.72;;;;;;;-4.99;80.78;101224.09;5093741;28;20540;-74
2024/01/21 04:34:17;;;;;;;2.30;1.85;;;;;;;-5.04;80.58;101224.47;5093337;28;20048;-74
2024/01/21 04:36:46;;;;;;;5.25;3.00;;;;;;;-5.05;80.56;101223.59;5093534;28;20032;-74
2024/01/21 04:39:21;;;;;;;4.43;4.03;;;;;;;-4.92;80.71;101230.50;5093705;28;20047;-74
2024/01/21 04:41:52;;;;;;;3.95;3.75;;;;;;;-4.91;80.40;101232.22;5093357;28;20106;-74
2024/01/21 04:44:21;;;;;;;0.77;0.77;;;;;;;-4.96;80.37;101230.94;5093703;28;20051;-74
2024/01/21 04:46:50;;;;;;;2.97;2.72;;;;;;;-5.01;80.81;101224.72;5093836;28;20040;-74
2024/01/21 04:49:19;;;;;;;0.90;0.90;;;;;;;-4.94;80.68;101226.97;5093597;28;20390;-75
2024/01/21 04:51:48;;;;;;;2.28;1.80;;;;;;;-5.03;80.24;101236.16;5093733;28;20089;-75
2024/01/21 04:54:17;;;;;;;;;;;;;;;-5.05;80.14;101232.66;5094133;28;20517;-75
2024/01/21 04:56:46;;;;;;;;;;;;;;;-5.04;80.33;101234.44;5092381;28;19987;-75
2024/01/21 04:59:17;;;;;;;0.77;0.75;;;;;;;-5.06;80.06;101235.91;5093862;28;19951;-74
2024/01/21 05:01:49;;;;;;;1.08;1.05;;;;;;;-5.13;80.71;101221.19;5097417;28;20548;-74
2024/01/21 05:04:18;;;;;;;1.20;1.10;;;;;;;-5.01;80.40;101234.66;5097239;28;20070;-75
2024/01/21 05:06:47;;;;;;;0.88;0.88;;;;;;;-4.97;80.67;101241.69;5097416;28;20036;-75
2024/01/21 05:09:16;;;;;;;2.85;2.60;;;;;;;-4.94;80.63;101236.94;5096083;28;20036;-75
2024/01/21 05:11:45;;;;;;;2.42;2.22;;;;;;;-5.04;80.28;101240.25;5097938;28;20478;-75
2024/01/21 05:14:16;;;;;;;3.88;3.50;;;;;;;-5.04;80.41;101250.22;5096953;28;20131;-74
2024/01/21 05:16:44;;;;;;;0.68;0.68;;;;;;;-4.99;80.36;101253.13;5097358;28;20051;-75
2024/01/21 05:19:16;;;;;;;0.60;0.60;;;;;;;-5.02;80.62;101253.72;5097255;28;20032;-74
2024/01/21 05:21:45;;;;;;;1.38;1.30;;;;;;;-5.14;80.41;101246.81;5097103;28;20044;-75
2024/01/21 05:24:14;;;;;;;0.75;0.75;;;;;;;-5.03;80.56;101261.03;5097140;28;20539;-75
2024/01/21 05:26:44;;;;;;;1.58;1.40;;;;;;;-4.92;80.12;101251.25;5079190;28;20051;-78
2024/01/21 05:29:14;;;;;;;1.55;1.45;;;;;;;-4.88;80.39;101250.78;5079054;28;20441;-78
2024/01/21 05:31:45;;;;;;;4.78;2.45;;;;;;;-4.91;79.62;101247.16;5097225;28;20052;-77
2024/01/21 05:34:14;;;;;;;0.70;0.70;;;;;;;-4.97;80.09;101256.59;5078679;28;20048;-78
2024/01/21 05:36:43;;;;;;;;;;;;;;;-5.04;80.02;101259.31;5097580;28;20036;-78
2024/01/21 05:39:14;;;;;;;1.05;1.00;;;;;;;-5.13;79.37;101243.56;5097171;28;19949;-78
2024/01/21 05:41:44;;;;;;;0.85;0.85;;;;;;;-5.16;79.91;101243.34;5079571;28;20074;-78
2024/01/21 05:44:13;;;;;;;0.75;0.75;;;;;;;-5.25;79.80;101242.50;5095650;28;20127;-78
2024/01/21 05:46:42;;;;;;;8.27;3.83;;;;;;;-5.31;79.74;101247.88;5097073;28;20039;-74
2024/01/21 05:49:13;;;;;;;;;;;;;;;-5.40;79.21;101251.16;5096006;28;20390;-75
2024/01/21 05:51:42;;;;;;;3.05;2.78;;;;;;;-5.46;79.44;101252.38;5096912;28;20358;-74
2024/01/21 05:54:11;;;;;;;0.47;0.47;;;;;;;-5.31;79.54;101246.97;5094960;28;20424;-75
2024/01/21 05:56:40;;;;;;;4.88;3.60;;;;;;;-5.30;79.04;101238.78;5096062;28;20052;-74
2024/01/21 05:59:09;;;;;;;2.78;2.58;;;;;;;-5.37;79.19;101229.91;5094877;28;20040;-75
2024/01/21 06:01:38;;;;;;;0.70;0.70;;;;;;;-5.42;79.10;101234.47;5096679;28;20043;-75
2024/01/21 06:04:07;;;;;;;0.50;0.50;;;;;;;-5.44;78.99;101235.97;5096189;28;20048;-75
2024/01/21 06:06:37;;;;;;;1.10;1.05;;;;;;;-5.45;79.31;101229.22;5094176;28;20481;-75
2024/01/21 06:09:09;;;;;;;7.10;5.80;;;;;;;-5.31;79.42;101237.03;5096359;28;20051;-75
2024/01/21 06:11:39;;;;;;;0.50;0.50;;;;;;;-5.27;79.08;101239.03;5095346;28;20127;-75
2024/01/21 06:14:08;;;;;;;8.45;4.10;;;;;;;-5.38;79.22;101239.72;5095999;28;20089;-75
2024/01/21 06:16:38;;;;;;;2.80;2.63;;;;;;;-5.36;79.37;101254.06;5096347;28;20090;-75
2024/01/21 06:19:07;;;;;;;0.98;0.98;;;;;;;-5.42;79.10;101244.44;5094798;28;20066;-75
2024/01/21 06:21:42;;;;;;;3.17;2.88;;;;;;;-5.49;78.99;101247.13;5095877;28;20159;-75
2024/01/21 06:24:12;;;;;;;1.63;1.52;;;;;;;-5.43;79.16;101250.16;5095684;28;20040;-75
2024/01/21 06:26:41;;;;;;;2.15;1.98;;;;;;;-5.33;79.44;101238.50;5096154;28;20517;-75
2024/01/21 06:29:10;;;;;;;3.35;3.00;;;;;;;-5.30;79.21;101246.25;5077787;28;20040;-77
2024/01/21 06:31:40;;;;;;;2.75;2.55;;;;;;;-5.24;79.32;101250.13;5094927;28;20036;-77
2024/01/21 06:34:09;;;;;;;1.38;1.27;;;;;;;-5.19;79.75;101253.00;5095541;28;20509;-78
2024/01/21 06:36:41;;;;;;;3.08;2.83;;;;;;;-5.14;79.71;101249.31;5094091;28;20105;-78
2024/01/21 06:39:10;;;;;;;2.25;2.05;;;;;;;-5.05;79.61;101253.47;5096043;28;20541;-78
2024/01/21 06:41:39;;;;;;;3.95;3.65;;;;;;;-5.33;79.87;101188.78;5094542;28;20048;-79
2024/01/21 06:44:08;;;;;;;4.03;1.90;;;;;;;-4.95;79.86;101245.16;5044017;28;20101;-75
2024/01/21 06:46:37;;;;;;;1.02;1.00;;;;;;;-4.79;80.36;101245.72;5095333;28;20059;-74
2024/01/21 06:49:06;;;;;;;1.65;1.55;;;;;;;-5.09;80.19;101181.78;5095035;28;20390;-74
2024/01/21 06:51:43;;;;;;;2.33;2.17;;;;;;;-4.66;80.38;101255.97;5095255;28;20052;-74
2024/01/21 06:54:13;;;;;;;1.08;1.08;;;;;;;-4.47;80.66;101259.25;5095234;28;20135;-74
2024/01/21 06:56:43;;;;;;;1.17;1.17;;;;;;;-4.12;80.92;101258.06;5093766;28;20051;-74
2024/01/21 06:59:13;;;;;;;1.75;1.65;;;;;;;-3.72;80.70;101258.81;5095397;28;20072;-75
2024/01/21 07:01:42;;;;;;;1.83;1.73;;;;;;;-3.81;80.47;101178.25;5095119;28;20040;-74
2024/01/21 07:04:12;;;;;;;1.67;1.58;;;;;;;-3.03;80.59;101249.41;5094844;28;20047;-79
2024/01/21 07:06:42;;;;;;;3.80;3.47;;;;;;;-2.99;80.22;101248.00;5095977;28;20044;-80
2024/01/21 07:09:14;;;;;;;;;;;;;;;-2.99;79.82;101245.50;5096628;28;20040;-79
2024/01/21 07:11:43;;;;;;;3.88;3.60;;;;;;;-3.36;79.44;101205.97;5098048;28;19924;-79
2024/01/21 07:14:13;;;;;;;10.32;2.78;;;;;;;-3.21;79.43;101252.06;5097984;28;20557;-78
2024/01/21 07:16:42;;;;;;;1.85;1.75;;;;;;;-3.19;79.03;101251.44;5096475;28;20410;-78
2024/01/21 07:19:11;;;;;;;1.00;1.00;;;;;;;-3.10;79.45;101249.69;5096714;28;20040;-78
2024/01/21 07:21:41;;;;;;;2.08;1.98;;;;;;;-2.95;79.14;101248.38;5097127;28;20044;-78
2024/01/21 07:24:10;;;;;;;1.60;1.50;;;;;;;-2.65;79.56;101263.97;5077965;28;20036;-77
2024/01/21 07:26:40;;;;;;;3.60;3.30;;;;;;;-2.34;78.90;101263.91;5096008;28;20513;-78
2024/01/21 07:29:09;;;;;;;2.15;2.00;;;;;;;-2.20;79.03;101274.94;5094606;28;20279;-77
2024/01/21 07:31:38;;;;;;;3.42;1.80;;;;;;;-2.15;78.65;101276.16;5095597;28;20036;-78
2024/01/21 07:34:09;;;;;;;1.70;1.60;;;;;;;-2.11;78.10;101270.63;5095133;28;20067;-77
2024/01/21 07:36:38;;;;;;;1.45;1.40;;;;;;;-2.05;77.97;101269.47;5095019;28;20032;-77
2024/01/21 07:39:08;;;;;;;3.72;3.42;;;;;;;-2.00;77.90;101269.81;5093775;28;20044;-77
2024/01/21 07:41:40;;;;;;;1.05;1.05;;;;;;;-1.97;77.54;101272.56;5092991;28;20078;-78
2024/01/21 07:44:09;;;;;;;1.15;1.05;;;;;;;-1.97;77.52;101272.56;5099070;28;20062;-78
2024/01/21 07:46:37;;;;;;;3.67;1.67;;;;;;;-1.87;77.60;101277.44;5079865;28;20539;-75
2024/01/21 07:49:06;;;;;;;2.00;1.88;;;;;;;-1.82;77.55;101271.16;5101990;28;20130;-75
2024/01/21 07:51:35;;;;;;;1.80;1.70;;;;;;;-1.80;77.35;101272.13;5101795;28;20109;-75
2024/01/21 07:54:04;;;;;;;1.95;1.85;;;;;;;-1.69;77.36;101275.44;5097764;28;20032;-75
2024/01/21 07:56:33;;;;;;;1.02;1.00;;;;;;;-1.67;76.74;101274.78;5098467;28;20045;-74
2024/01/21 07:59:03;;;;;;;1.98;1.88;;;;;;;-1.71;76.83;101277.84;5076202;28;20105;-74
2024/01/21 08:01:32;;;;;;;2.55;2.40;;;;;;;-1.76;76.58;101284.13;5093901;28;20036;-75
2024/01/21 08:04:02;;;;;;;2.03;1.83;;;;;;;-1.74;76.57;101292.63;5059705;28;20076;-74
2024/01/21 08:06:31;;;;;;;4.10;3.33;;;;;;;-1.72;76.42;101291.09;5092465;28;20434;-74
2024/01/21 08:09:00;;;;;;;1.40;1.30;;;;;;;-1.55;76.66;101289.81;5094284;28;20105;-75
2024/01/21 08:11:29;;;;;;;0.50;0.50;;;;;;;-1.58;76.47;101280.47;5094190;28;20044;-75
2024/01/21 08:13:58;;;;;;;3.88;1.77;;;;;;;-1.62;76.04;101287.63;5092798;28;20119;-75
2024/01/21 08:16:29;;;;;;;1.45;1.35;;;;;;;-1.64;75.95;101285.03;5092745;28;20066;-75
2024/01/21 08:18:58;;;;;;;1.80;1.70;;;;;;;-1.43;76.26;101286.59;5093550;28;20047;-76
2024/01/21 08:21:27;;;;;;;6.20;3.13;;;;;;;-1.40;76.21;101286.81;5094089;28;20043;-76
2024/01/21 08:23:56;;;;;;;;;;;;;;;-1.39;76.12;101283.53;5094390;28;20398;-75
2024/01/21 08:26:25;;;;;;;1.08;0.98;;;;;;;-1.47;75.84;101274.63;5093832;28;19920;-75
2024/01/21 08:28:53;;;;;;;9.85;2.83;;;;;;;-1.40;76.22;101281.81;5093737;28;20105;-76
2024/01/21 08:31:22;;;;;;;2.03;1.90;;;;;;;-1.31;76.26;101285.72;5113056;28;20122;-77
2024/01/21 08:33:52;;;;;;;1.50;1.40;;;;;;;-1.22;76.08;101281.38;5101511;28;20272;-76
2024/01/21 08:36:22;;;;;;;0.80;0.80;;;;;;;-1.00;76.22;101297.16;5107853;28;20284;-76
2024/01/21 08:38:51;;;;;;;2.28;2.08;;;;;;;-0.88;76.01;101295.50;5106833;28;20118;-76
2024/01/21 08:41:20;;;;;;;;;;;;;;;-0.71;76.17;101305.09;5107146;28;20040;-76
2024/01/21 08:43:49;;;;;;;0.52;0.52;;;;;;;-0.74;75.99;101312.38;5107039;28;19919;-75
2024/01/21 08:46:18;;;;;;;3.22;2.97;;;;;;;-0.59;76.03;101310.94;5108635;28;20039;-76
2024/01/21 08:48:47;;;;;;;2.60;2.45;;;;;;;-0.33;75.91;101326.16;5113325;28;20039;-75
2024/01/21 08:51:20;;;;;;;2.15;1.40;;;;;;;-0.22;75.67;101325.28;5104107;28;21448;-76
2024/01/21 08:53:56;;;;;;;2.20;2.03;;;;;;;-0.21;75.33;101326.13;5104495;28;20047;-75
2024/01/21 08:56:26;;;;;;;1.65;1.55;;;;;;;-0.12;75.29;101332.63;5108587;28;20131;-75
2024/01/21 08:58:55;;;;;;;1.88;1.77;;;;;;;-0.19;74.65;101330.47;5106590;28;20035;-74
2024/01/21 09:01:24;;;;;;;1.77;1.67;;;;;;;-0.23;74.33;101336.06;5101898;28;20032;-75
2024/01/21 09:03:53;;;;;;;1.05;0.98;;;;;;;-0.08;74.76;101337.13;5103576;28;20035;-75
2024/01/21 09:06:23;;;;;;;5.10;4.60;;;;;;;-0.03;73.98;101338.28;5106025;28;20066;-73
2024/01/21 09:08:54;;;;;;;1.35;1.25;;;;;;;-0.10;74.10;101335.25;5105812;28;20047;-74
2024/01/21 09:11:25;;;;;;;2.15;1.83;;;;;;;-0.01;73.94;101335.88;5107701;28;20067;-74
2024/01/21 09:13:54;;;;;;;3.92;2.17;;;;;;;0.15;73.87;101332.75;5112372;28;20081;-73
2024/01/21 09:16:23;;;;;;;1.70;1.60;;;;;;;-0.01;73.30;101331.75;5116427;28;20050;-73
2024/01/21 09:18:54;;;;;;;0.73;0.73;;;;;;;-0.20;72.78;101338.78;5105454;28;20089;-74
2024/01/21 09:21:25;;;;;;;1.73;1.63;;;;;;;-0.11;73.18;101344.44;5104708;28;20039;-73
2024/01/21 09:24:04;;;;;;;3.35;1.50;;;;;;;-0.01;73.27;101336.75;5106583;28;20039;-73
2024/01/21 09:26:34;;;;;;;1.80;1.58;;;;;;;0.11;73.48;101335.84;5102772;28;20100;-74
2024/01/21 09:29:03;;;;;;;1.35;1.25;;;;;;;0.12;72.71;101332.56;5107877;28;20478;-73
2024/01/21 09:31:32;;;;;;;3.38;2.13;;;;;;;0.15;72.65;101317.69;5105525;28;20028;-73
2024/01/21 09:34:01;;;;;;;0.80;0.80;;;;;;;0.10;72.73;101319.03;5106050;28;20044;-73
2024/01/21 09:36:34;;;;;;;0.98;0.98;;;;;;;0.07;72.83;101313.81;5106558;28;20040;-73
2024/01/21 09:39:04;;;;;;;0.52;0.52;;;;;;;0.16;72.30;101314.41;5101958;28;20146;-73
2024/01/21 09:41:42;;;;;;;1.23;1.13;;;;;;;0.32;72.87;101312.16;5105892;28;20417;-72
2024/01/21 09:44:12;;;;;;;1.38;1.27;;;;;;;0.42;72.60;101317.00;5105605;28;20390;-72
2024/01/21 09:46:41;;;;;;;3.25;1.90;;;;;;;0.48;72.20;101312.41;5104841;28;20413;-72
2024/01/21 09:49:11;;;;;;;14.45;2.35;;;;;;;0.63;72.13;101315.88;5107692;28;20037;-72
2024/01/21 09:51:43;;;;;;;1.13;1.08;;;;;;;0.72;72.35;101306.44;5116802;28;20554;-71
2024/01/21 09:54:12;;;;;;;0.65;0.65;;;;;;;0.87;71.74;101317.47;5116540;28;20497;-73
2024/01/21 09:56:43;;;;;;;1.48;0.95;;;;;;;0.95;71.79;101301.25;5116485;28;20102;-72
2024/01/21 09:59:13;;;;;;;15.00;2.75;;;;;;;1.12;70.99;101305.69;5116684;28;20398;-72
2024/01/21 10:01:42;;;;;;;2.00;1.85;;;;;;;1.27;70.79;101306.63;5104438;28;20036;-72
2024/01/21 10:04:14;;;;;;;5.18;3.80;;;;;;;1.53;71.49;101299.81;5096450;28;20036;-72
2024/01/21 10:06:45;;;;;;;3.17;1.17;;;;;;;1.69;70.89;101303.38;5094916;28;20055;-72
2024/01/21 10:09:16;;;;;;;4.85;2.88;;;;;;;1.92;70.25;101297.19;5096343;28;20505;-72
2024/01/21 10:11:54;;;;;;;1.13;1.13;;;;;;;2.05;70.17;101302.16;5096131;28;20078;-72
2024/01/21 10:14:23;;;;;;;5.82;2.42;;;;;;;2.07;70.17;101298.09;5096104;28;20135;-72
2024/01/21 10:16:51;;;;;;;1.05;1.05;;;;;;;2.15;69.68;101271.72;5095587;28;20036;-73
2024/01/21 10:19:27;;;;;;;2.85;1.55;;;;;;;2.21;68.62;101292.19;5094681;28;20047;-72
2024/01/21 10:22:18;;;;;;;4.15;2.17;;;;;;;2.10;69.12;101295.75;5095809;28;20044;-72
2024/01/21 10:24:49;;;;;;;2.85;1.95;;;;;;;2.34;69.01;101287.09;5090684;28;20135;-72
2024/01/21 10:27:19;;;;;;;0.70;0.68;;;;;;;2.46;68.25;101284.41;5096038;28;20063;-72
2024/01/21 10:29:48;;;;;;;1.65;1.55;;;;;;;2.37;66.99;101276.34;5095691;28;20068;-72
2024/01/21 10:32:18;;;;;;;1.00;0.98;;;;;;;2.40;67.21;101294.16;5094445;28;20044;-73
2024/01/21 10:34:51;;;;;;;3.35;2.65;;;;;;;2.34;66.83;101298.81;5095602;28;20055;-72
2024/01/21 10:37:23;;;;;;;2.78;2.42;;;;;;;2.52;67.82;101300.75;5095176;28;20047;-72
2024/01/21 10:39:53;;;;;;;6.82;2.58;;;;;;;2.76;67.25;101300.41;5094228;28;20063;-73
2024/01/21 10:42:22;;;;;;;1.88;1.27;;;;;;;3.02;67.56;101295.16;5095460;28;20040;-72
2024/01/21 10:44:52;;;;;;;4.28;2.05;;;;;;;3.15;65.80;101295.03;5095064;28;20039;-72
2024/01/21 10:47:22;;;;;;;2.40;2.25;;;;;;;3.20;66.01;101297.03;5095993;28;20039;-73
2024/01/21 10:49:51;;;;;;;1.65;1.08;;;;;;;3.25;65.82;101297.28;5095371;28;20035;-72
2024/01/21 10:52:22;;;;;;;2.28;1.35;;;;;;;3.36;65.39;101301.25;5095179;28;20048;-72
2024/01/21 10:54:51;;;;;;;0.63;0.63;;;;;;;3.46;64.77;101300.94;5095231;28;20046;-73
2024/01/21 10:57:20;;;;;;;0.57;0.57;;;;;;;3.42;64.88;101304.09;5092905;28;20050;-73
2024/01/21 10:59:49;;;;;;;1.80;1.45;;;;;;;3.42;63.70;101299.06;5095202;28;20048;-73
2024/01/21 11:02:20;;;;;;;1.23;0.98;;;;;;;3.48;63.51;101304.41;5093902;28;20050;-73
2024/01/21 11:04:50;;;;;;;2.45;1.38;;;;;;;3.43;64.10;101288.19;5094934;28;20578;-72
2024/01/21 11:07:19;;;;;;;2.33;1.98;;;;;;;3.44;63.74;101300.00;5094970;28;20072;-73
2024/01/21 11:09:50;;;;;;;0.65;0.65;;;;;;;3.57;64.76;101304.94;5094917;28;20054;-73
2024/01/21 11:12:20;;;;;;;3.17;1.92;;;;;;;3.58;63.90;101306.66;5095123;28;20056;-73
2024/01/21 11:14:51;;;;;;;0.88;0.73;;;;;;;3.80;64.65;101304.47;5094691;28;20063;-73
2024/01/21 11:17:21;;;;;;;5.82;2.60;;;;;;;3.94;64.41;101301.00;5094651;28;20042;-71
2024/01/21 11:19:54;;;;;;;3.03;2.80;;;;;;;4.21;64.12;101298.16;5094480;28;20401;-72
2024/01/21 11:22:26;;;;;;;1.88;1.60;;;;;;;4.24;64.10;101273.03;5094906;28;20054;-72
2024/01/21 11:24:56;;;;;;;2.15;0.88;;;;;;;4.29;62.49;101284.25;5093750;28;20044;-72
2024/01/21 11:27:28;;;;;;;4.13;2.05;;;;;;;4.06;62.54;101258.69;5093105;28;20039;-72
2024/01/21 11:29:58;;;;;;;1.08;1.02;;;;;;;4.02;62.65;101283.72;5093287;28;20062;-72
2024/01/21 11:32:30;;;;;;;3.40;2.50;;;;;;;4.19;63.08;101294.69;5094482;28;20090;-72
2024/01/21 11:35:08;;;;;;;0.90;0.90;;;;;;;4.27;62.75;101293.41;5094407;28;20125;-71
2024/01/21 11:37:41;;;;;;;5.13;1.70;;;;;;;4.23;62.27;101291.50;5094129;28;20428;-72
2024/01/21 11:40:12;;;;;;;1.30;1.20;;;;;;;4.28;62.13;101288.44;5094288;28;20048;-72